createdAt,value
2017-11-05T00:02:21.086Z,7.30
2017-11-05T00:04:48.588Z,7.20
2017-11-05T00:07:16.058Z,7.10
2017-11-05T00:09:43.529Z,7.40
2017-11-05T00:12:11.022Z,7.40
2017-11-05T00:14:38.493Z,7.40
2017-11-05T00:17:06.750Z,7.40
2017-11-05T00:19:34.221Z,7.40
2017-11-05T00:22:02.459Z,7.40
2017-11-05T00:24:29.954Z,7.40
2017-11-05T00:26:58.257Z,7.50
2017-11-05T00:29:25.725Z,7.50
2017-11-05T00:31:53.217Z,7.50
2017-11-05T00:34:20.690Z,7.60
2017-11-05T00:36:48.161Z,7.70
2017-11-05T00:39:16.434Z,7.70
2017-11-05T00:41:44.666Z,7.80
2017-11-05T00:44:12.137Z,7.80
2017-11-05T00:46:39.640Z,7.90
2017-11-05T00:49:07.868Z,8.00
2017-11-05T00:51:35.337Z,7.90
2017-11-05T00:54:02.825Z,8.00
2017-11-05T00:56:31.061Z,8.10
2017-11-05T00:58:59.286Z,8.10
2017-11-05T01:01:26.758Z,8.10
2017-11-05T01:03:54.229Z,8.10
2017-11-05T01:06:21.714Z,8.20
2017-11-05T01:08:49.193Z,8.20
2017-11-05T01:11:17.454Z,8.10
2017-11-05T01:13:44.918Z,8.10
2017-11-05T01:16:12.385Z,8.10
2017-11-05T01:18:40.643Z,8.20
2017-11-05T01:21:08.169Z,8.20
2017-11-05T01:23:35.642Z,8.20
2017-11-05T01:26:03.128Z,8.20
2017-11-05T01:28:30.594Z,8.20
2017-11-05T01:30:58.104Z,8.20
2017-11-05T01:33:25.573Z,8.20
2017-11-05T01:35:53.033Z,8.20
2017-11-05T01:38:20.521Z,8.20
2017-11-05T01:40:48.765Z,8.20
2017-11-05T01:43:16.237Z,8.20
2017-11-05T01:45:43.725Z,8.30
2017-11-05T01:48:11.198Z,8.30
2017-11-05T01:50:38.669Z,8.30
2017-11-05T01:53:06.163Z,8.30
2017-11-05T01:55:33.631Z,8.30
2017-11-05T01:58:01.873Z,8.40
2017-11-05T02:00:29.370Z,8.40
2017-11-05T02:02:57.828Z,8.50
2017-11-05T02:05:25.688Z,8.50
2017-11-05T02:07:53.174Z,8.60
2017-11-05T02:10:21.413Z,8.70
2017-11-05T02:12:48.904Z,8.60
2017-11-05T02:15:17.137Z,8.70
2017-11-05T02:17:44.606Z,8.70
2017-11-05T02:20:12.092Z,8.60
2017-11-05T02:22:40.330Z,8.60
2017-11-05T02:25:07.818Z,8.60
2017-11-05T02:27:35.587Z,8.60
2017-11-05T02:30:03.827Z,8.70
2017-11-05T02:32:31.315Z,8.60
2017-11-05T02:34:58.786Z,8.60
2017-11-05T02:37:27.017Z,8.20
2017-11-05T02:39:54.515Z,8.10
2017-11-05T02:42:22.991Z,8.30
2017-11-05T02:44:51.229Z,8.30
2017-11-05T02:47:18.721Z,8.30
2017-11-05T02:49:46.958Z,8.30
2017-11-05T02:52:14.446Z,8.30
2017-11-05T02:54:41.918Z,8.40
2017-11-05T02:57:10.149Z,8.50
2017-11-05T02:59:37.638Z,8.50
2017-11-05T03:02:05.106Z,8.50
2017-11-05T03:04:33.333Z,8.40
2017-11-05T03:07:00.821Z,8.40
2017-11-05T03:09:28.297Z,8.40
2017-11-05T03:11:56.530Z,8.60
2017-11-05T03:14:24.026Z,8.50
2017-11-05T03:16:52.304Z,8.70
2017-11-05T03:19:20.541Z,8.70
2017-11-05T03:21:48.283Z,8.70
2017-11-05T03:24:15.748Z,8.80
2017-11-05T03:26:43.214Z,8.90
2017-11-05T03:29:10.697Z,8.90
2017-11-05T03:31:38.952Z,9.00
2017-11-05T03:34:06.422Z,9.00
2017-11-05T03:36:33.909Z,9.10
2017-11-05T03:39:02.139Z,9.10
2017-11-05T03:41:29.628Z,9.10
2017-11-05T03:43:57.099Z,9.00
2017-11-05T03:46:25.329Z,8.90
2017-11-05T03:48:52.817Z,8.90
2017-11-05T03:51:21.054Z,8.60
2017-11-05T03:53:48.526Z,8.60
2017-11-05T03:56:16.013Z,8.50
2017-11-05T03:58:44.253Z,8.70
2017-11-05T04:01:11.730Z,8.70
2017-11-05T04:03:39.209Z,8.80
2017-11-05T04:06:07.442Z,8.90
2017-11-05T04:08:34.937Z,8.90
2017-11-05T04:11:03.177Z,9.10
2017-11-05T04:13:30.640Z,9.10
2017-11-05T04:15:58.133Z,9.10
2017-11-05T04:18:26.369Z,9.20
2017-11-05T04:20:53.837Z,9.20
2017-11-05T04:23:21.326Z,9.20
2017-11-05T04:25:48.793Z,9.20
2017-11-05T04:28:16.257Z,9.20
2017-11-05T04:30:43.746Z,9.20
2017-11-05T04:33:11.485Z,9.10
2017-11-05T04:35:38.954Z,9.10
2017-11-05T04:38:06.442Z,9.20
2017-11-05T04:40:33.906Z,9.20
2017-11-05T04:43:01.376Z,9.20
2017-11-05T04:45:29.638Z,9.20
2017-11-05T04:47:57.113Z,9.20
2017-11-05T04:50:25.365Z,9.30
2017-11-05T04:52:52.838Z,9.20
2017-11-05T04:55:21.083Z,9.30
2017-11-05T04:57:48.585Z,9.30
2017-11-05T05:00:16.058Z,9.20
2017-11-05T05:02:43.528Z,9.20
2017-11-05T05:05:11.005Z,9.20
2017-11-05T05:07:38.470Z,9.30
2017-11-05T05:10:05.957Z,9.40
2017-11-05T05:12:34.194Z,9.50
2017-11-05T05:15:01.661Z,9.50
2017-11-05T05:17:29.152Z,9.60
2017-11-05T05:19:57.384Z,9.80
2017-11-05T05:22:24.850Z,9.80
2017-11-05T05:24:52.334Z,9.90
2017-11-05T05:27:20.574Z,10.10
2017-11-05T05:29:48.051Z,10.10
2017-11-05T05:32:15.542Z,10.20
2017-11-05T05:34:43.017Z,10.20
2017-11-05T05:37:10.485Z,10.20
2017-11-05T05:39:37.973Z,10.30
2017-11-05T05:42:05.444Z,10.30
2017-11-05T05:44:32.933Z,10.40
2017-11-05T05:47:00.403Z,10.50
2017-11-05T05:49:27.885Z,10.50
2017-11-05T05:51:55.373Z,10.60
2017-11-05T05:54:22.874Z,10.50
2017-11-05T05:56:50.365Z,10.50
2017-11-05T05:59:17.849Z,10.40
2017-11-05T06:01:45.317Z,10.40
2017-11-05T06:04:13.586Z,10.40
2017-11-05T06:06:41.822Z,10.40
2017-11-05T06:09:09.297Z,10.40
2017-11-05T06:11:36.781Z,10.40
2017-11-05T06:14:05.022Z,10.50
2017-11-05T06:16:32.513Z,10.50
2017-11-05T06:19:00.752Z,10.60
2017-11-05T06:21:28.225Z,10.60
2017-11-05T06:23:56.175Z,10.60
2017-11-05T06:26:24.063Z,10.60
2017-11-05T06:28:51.981Z,10.60
2017-11-05T06:31:19.462Z,10.60
2017-11-05T06:33:46.934Z,10.60
2017-11-05T06:36:14.421Z,10.70
2017-11-05T06:38:42.657Z,10.20
2017-11-05T06:41:10.153Z,10.20
2017-11-05T06:43:38.410Z,10.20
2017-11-05T06:46:05.881Z,10.20
2017-11-05T06:48:34.137Z,10.40
2017-11-05T06:51:01.618Z,10.30
2017-11-05T06:53:29.865Z,10.50
2017-11-05T06:55:57.357Z,10.50
2017-11-05T06:58:25.593Z,10.50
2017-11-05T07:00:53.066Z,10.50
2017-11-05T07:03:20.586Z,10.60
2017-11-05T07:05:48.341Z,10.60
2017-11-05T07:08:16.212Z,10.60
2017-11-05T07:10:43.827Z,10.60
2017-11-05T07:13:12.070Z,10.60
2017-11-05T07:15:39.566Z,10.60
2017-11-05T07:18:07.810Z,10.60
2017-11-05T07:20:35.280Z,10.60
2017-11-05T07:23:02.774Z,10.60
2017-11-05T07:25:30.244Z,10.50
2017-11-05T07:27:57.937Z,10.50
2017-11-05T07:30:25.445Z,10.50
2017-11-05T07:32:52.916Z,10.40
2017-11-05T07:35:20.427Z,10.40
2017-11-05T07:37:47.897Z,10.40
2017-11-05T07:40:16.133Z,10.60
2017-11-05T07:42:43.625Z,10.60
2017-11-05T07:45:11.861Z,10.80
2017-11-05T07:47:39.362Z,10.80
2017-11-05T07:50:07.598Z,11.00
2017-11-05T07:52:35.069Z,11.00
2017-11-05T07:55:02.570Z,11.00
2017-11-05T07:57:30.047Z,11.00
2017-11-05T07:59:57.546Z,10.90
2017-11-05T08:02:25.017Z,10.90
2017-11-05T08:04:52.489Z,11.00
2017-11-05T08:07:20.745Z,11.00
2017-11-05T08:09:48.213Z,11.10
2017-11-05T08:12:16.462Z,11.10
2017-11-05T08:14:43.954Z,11.10
2017-11-05T08:17:12.189Z,11.20
2017-11-05T08:19:39.663Z,11.20
2017-11-05T08:22:07.154Z,11.30
2017-11-05T08:24:34.633Z,11.30
2017-11-05T08:27:02.126Z,11.30
2017-11-05T08:29:29.597Z,11.40
2017-11-05T08:31:57.066Z,11.50
2017-11-05T08:34:25.328Z,11.60
2017-11-05T08:36:52.802Z,11.50
2017-11-05T08:39:21.037Z,11.60
2017-11-05T08:41:48.896Z,11.50
2017-11-05T08:44:17.697Z,11.50
2017-11-05T08:46:45.981Z,11.50
2017-11-05T08:49:13.526Z,11.50
2017-11-05T08:51:41.003Z,11.50
2017-11-05T08:54:08.501Z,11.50
2017-11-05T08:56:35.977Z,11.50
2017-11-05T08:59:03.462Z,11.50
2017-11-05T09:01:30.978Z,11.60
2017-11-05T09:03:58.458Z,11.60
2017-11-05T09:06:25.940Z,11.60
2017-11-05T09:08:53.445Z,11.60
2017-11-05T09:11:20.936Z,11.70
2017-11-05T09:13:48.434Z,11.70
2017-11-05T09:16:16.690Z,11.80
2017-11-05T09:18:44.414Z,11.80
2017-11-05T09:21:11.909Z,11.80
2017-11-05T09:23:39.637Z,11.80
2017-11-05T09:26:07.113Z,11.80
2017-11-05T09:28:34.613Z,11.80
2017-11-05T09:31:02.854Z,11.70
2017-11-05T09:33:30.342Z,11.70
2017-11-05T09:35:58.609Z,11.50
2017-11-05T09:38:26.082Z,11.50
2017-11-05T09:40:54.341Z,11.50
2017-11-05T09:43:21.810Z,11.50
2017-11-05T09:45:50.050Z,11.50
2017-11-05T09:48:17.541Z,11.50
2017-11-05T09:50:45.846Z,11.40
2017-11-05T09:53:13.349Z,11.40
2017-11-05T09:55:40.832Z,11.40
2017-11-05T09:58:09.070Z,11.30
2017-11-05T10:00:36.561Z,11.20
2017-11-05T10:03:04.806Z,11.20
2017-11-05T10:05:32.330Z,11.20
2017-11-05T10:07:59.805Z,11.30
2017-11-05T10:10:27.277Z,11.30
2017-11-05T10:12:54.768Z,11.20
2017-11-05T10:15:23.009Z,10.80
2017-11-05T10:17:50.493Z,10.70
2017-11-05T10:20:17.982Z,10.60
2017-11-05T10:22:45.453Z,10.60
2017-11-05T10:25:12.941Z,10.50
2017-11-05T10:27:40.425Z,10.50
2017-11-05T10:30:08.725Z,10.40
2017-11-05T10:32:36.198Z,10.40
2017-11-05T10:35:03.785Z,10.30
2017-11-05T10:37:31.278Z,10.30
2017-11-05T10:39:59.513Z,10.20
2017-11-05T10:42:27.929Z,10.20
2017-11-05T10:44:56.271Z,10.20
2017-11-05T10:47:23.750Z,10.20
2017-11-05T10:49:51.539Z,10.20
2017-11-05T10:52:19.924Z,10.30
2017-11-05T10:54:47.619Z,10.30
2017-11-05T10:57:15.176Z,10.30
2017-11-05T10:59:42.751Z,10.30
2017-11-05T11:02:10.241Z,10.30
2017-11-05T11:04:37.734Z,10.20
2017-11-05T11:07:05.209Z,10.00
2017-11-05T11:09:32.966Z,10.00
2017-11-05T11:12:00.438Z,9.80
2017-11-05T11:14:27.975Z,9.60
2017-11-05T11:16:55.461Z,9.50
2017-11-05T11:19:23.746Z,9.50
2017-11-05T11:21:53.370Z,9.40
2017-11-05T11:24:20.837Z,9.40
2017-11-05T11:29:50.434Z,9.10
2017-11-05T11:32:19.530Z,9.10
2017-11-05T11:34:47.077Z,9.10
2017-11-05T11:37:14.549Z,9.10
2017-11-05T11:39:42.093Z,9.10
2017-11-05T11:42:09.586Z,9.10
2017-11-05T11:44:37.860Z,9.00
2017-11-05T11:47:07.571Z,9.00
2017-11-05T11:49:36.110Z,9.00
2017-11-05T11:52:04.164Z,8.80
2017-11-05T11:54:33.489Z,8.70
2017-11-05T11:57:01.890Z,8.70
2017-11-05T11:59:29.510Z,8.70
2017-11-05T12:01:57.274Z,8.60
2017-11-05T12:04:25.411Z,8.60
2017-11-05T12:06:54.610Z,8.60
2017-11-05T12:09:24.201Z,8.50
2017-11-05T12:11:51.672Z,8.50
2017-11-05T12:14:20.905Z,8.50
2017-11-05T12:16:48.574Z,8.50
2017-11-05T12:19:16.978Z,8.50
2017-11-05T12:21:45.210Z,8.50
2017-11-05T12:24:12.960Z,8.60
2017-11-05T12:26:40.494Z,8.70
2017-11-05T12:29:08.738Z,8.70
2017-11-05T12:31:36.217Z,8.70
2017-11-05T12:34:03.710Z,8.80
2017-11-05T12:36:31.183Z,8.70
2017-11-05T12:38:58.674Z,8.70
2017-11-05T12:41:26.158Z,8.70
2017-11-05T12:43:54.686Z,8.60
2017-11-05T12:46:22.185Z,8.60
2017-11-05T12:48:49.905Z,8.70
2017-11-05T12:51:17.378Z,8.70
2017-11-05T12:53:44.881Z,8.70
2017-11-05T12:56:14.135Z,8.70
2017-11-05T12:58:45.897Z,8.70
2017-11-05T13:01:15.279Z,8.60
2017-11-05T13:03:43.761Z,8.70
2017-11-05T13:08:45.658Z,8.60
2017-11-05T13:11:13.145Z,8.60
2017-11-05T13:13:42.055Z,8.60
2017-11-05T13:16:10.471Z,8.60
2017-11-05T13:18:37.939Z,8.50
2017-11-05T13:21:05.685Z,8.50
2017-11-05T13:23:33.181Z,8.60
2017-11-05T13:26:01.765Z,8.60
2017-11-05T13:28:39.609Z,8.50
2017-11-05T13:31:09.170Z,8.50
2017-11-05T13:33:38.398Z,8.40
2017-11-05T13:36:06.725Z,8.30
2017-11-05T13:38:34.225Z,8.40
2017-11-05T13:41:02.622Z,8.40
2017-11-05T13:43:30.989Z,8.30
2017-11-05T13:45:59.834Z,8.40
2017-11-05T13:48:27.302Z,8.40
2017-11-05T13:50:55.019Z,8.40
2017-11-05T13:53:22.544Z,8.40
2017-11-05T13:55:51.698Z,8.30
2017-11-05T13:58:19.181Z,8.30
2017-11-05T14:00:46.774Z,8.40
2017-11-05T14:03:14.682Z,8.40
2017-11-05T14:05:42.288Z,8.40
2017-11-05T14:08:11.140Z,8.30
2017-11-05T14:10:40.577Z,8.30
2017-11-05T14:13:09.686Z,8.20
2017-11-05T14:15:38.654Z,8.20
2017-11-05T14:18:06.125Z,8.20
2017-11-05T14:20:34.385Z,8.10
2017-11-05T14:23:01.897Z,8.10
2017-11-05T14:25:29.373Z,8.10
2017-11-05T14:27:56.874Z,8.10
2017-11-05T14:30:25.113Z,8.00
2017-11-05T14:32:52.581Z,8.00
2017-11-05T14:35:20.090Z,8.00
2017-11-05T14:37:47.570Z,8.00
2017-11-05T14:40:15.045Z,8.00
2017-11-05T14:42:42.545Z,8.00
2017-11-05T14:45:10.080Z,8.00
2017-11-05T14:47:37.555Z,8.00
2017-11-05T14:50:05.965Z,8.00
2017-11-05T14:52:33.460Z,8.00
2017-11-05T14:55:00.953Z,8.00
2017-11-05T14:57:28.454Z,8.00
2017-11-05T14:59:55.931Z,8.00
2017-11-05T15:02:23.405Z,8.00
2017-11-05T15:04:51.109Z,8.00
2017-11-05T15:07:18.837Z,8.00
2017-11-05T15:09:47.129Z,7.90
2017-11-05T15:12:15.375Z,8.00
2017-11-05T15:14:42.853Z,8.00
2017-11-05T15:17:11.111Z,7.90
2017-11-05T15:19:40.434Z,7.90
2017-11-05T15:22:08.026Z,7.90
2017-11-05T15:24:36.698Z,7.80
2017-11-05T15:27:04.626Z,7.70
2017-11-05T15:29:33.886Z,7.70
2017-11-05T15:32:03.021Z,7.60
2017-11-05T15:34:31.306Z,7.60
2017-11-05T15:36:59.570Z,7.60
2017-11-05T15:39:27.050Z,7.60
2017-11-05T15:41:54.525Z,7.60
2017-11-05T15:44:22.029Z,7.60
2017-11-05T15:46:49.508Z,7.50
2017-11-05T15:49:17.754Z,7.60
2017-11-05T15:51:45.245Z,7.60
2017-11-05T15:54:13.493Z,7.60
2017-11-05T15:56:40.990Z,7.50
2017-11-05T15:59:08.462Z,7.60
2017-11-05T16:01:35.941Z,7.60
2017-11-05T16:04:03.435Z,7.60
2017-11-05T16:06:30.913Z,7.60
2017-11-05T16:09:20.378Z,7.60
2017-11-05T16:11:49.167Z,7.60
2017-11-05T16:14:17.418Z,7.60
2017-11-05T16:16:45.553Z,7.60
2017-11-05T16:19:13.053Z,7.60
2017-11-05T16:21:41.151Z,7.60
2017-11-05T16:24:10.331Z,7.50
2017-11-05T16:26:39.849Z,7.50
2017-11-05T16:29:08.590Z,7.40
2017-11-05T16:31:36.641Z,7.40
2017-11-05T16:34:05.497Z,7.40
2017-11-05T16:36:35.037Z,7.50
2017-11-05T16:39:02.991Z,7.50
2017-11-05T16:41:31.534Z,7.40
2017-11-05T16:43:59.487Z,7.40
2017-11-05T16:46:27.726Z,7.30
2017-11-05T16:48:55.425Z,7.40
2017-11-05T16:51:34.850Z,7.30
2017-11-05T16:54:07.894Z,7.30
2017-11-05T16:56:36.242Z,7.30
2017-11-05T16:59:03.854Z,7.30
2017-11-05T17:01:31.362Z,7.30
2017-11-05T17:04:00.733Z,7.30
2017-11-05T17:06:28.246Z,7.20
2017-11-05T17:08:56.565Z,7.30
2017-11-05T17:11:24.091Z,7.20
2017-11-05T17:13:54.037Z,7.20
2017-11-05T17:16:22.374Z,7.30
2017-11-05T17:18:50.157Z,7.20
2017-11-05T17:21:17.663Z,7.20
2017-11-05T17:23:45.177Z,7.20
2017-11-05T17:26:16.287Z,7.30
2017-11-05T17:28:44.658Z,7.30
2017-11-05T17:31:12.923Z,7.30
2017-11-05T17:33:40.412Z,7.30
2017-11-05T17:36:07.915Z,7.40
2017-11-05T17:38:35.391Z,7.40
2017-11-05T17:41:02.873Z,7.30
2017-11-05T17:43:30.676Z,7.30
2017-11-05T17:45:58.158Z,7.30
2017-11-05T17:48:25.630Z,7.30
2017-11-05T17:50:53.898Z,7.40
2017-11-05T17:53:21.379Z,7.40
2017-11-05T17:55:49.642Z,7.40
2017-11-05T17:58:17.124Z,7.40
2017-11-05T18:00:45.430Z,7.40
2017-11-05T18:03:12.930Z,7.40
2017-11-05T18:05:42.119Z,7.40
2017-11-05T18:08:09.602Z,7.40
2017-11-05T18:10:37.926Z,7.40
2017-11-05T18:13:05.411Z,7.30
2017-11-05T18:15:32.904Z,7.30
2017-11-05T18:18:00.422Z,7.30
2017-11-05T18:20:28.489Z,7.30
2017-11-05T18:22:55.965Z,7.30
2017-11-05T18:25:23.463Z,7.30
2017-11-05T18:27:51.039Z,7.30
2017-11-05T18:30:18.546Z,7.30
2017-11-05T18:32:46.026Z,7.30
2017-11-05T18:35:13.505Z,7.30
2017-11-05T18:37:41.006Z,7.20
2017-11-05T18:40:08.539Z,7.20
2017-11-05T18:42:36.017Z,7.20
2017-11-05T18:45:03.518Z,7.20
2017-11-05T18:47:31.006Z,7.20
2017-11-05T18:49:58.486Z,7.20
2017-11-05T18:52:26.009Z,7.20
2017-11-05T18:54:53.506Z,7.20
2017-11-05T18:57:20.990Z,7.20
2017-11-05T18:59:49.254Z,7.10
2017-11-05T19:02:17.512Z,7.10
2017-11-05T19:04:45.017Z,7.10
2017-11-05T19:07:12.524Z,7.10
2017-11-05T19:09:40.006Z,7.10
2017-11-05T19:12:08.300Z,7.10
2017-11-05T19:14:35.797Z,7.00
2017-11-05T19:17:03.278Z,7.00
2017-11-05T19:19:31.006Z,7.00
2017-11-05T19:21:58.486Z,7.00
2017-11-05T19:24:25.981Z,7.00
2017-11-05T19:26:54.250Z,6.90
2017-11-05T19:29:21.734Z,6.90
2017-11-05T19:31:49.218Z,6.90
2017-11-05T19:34:16.717Z,6.90
2017-11-05T19:36:44.199Z,6.90
2017-11-05T19:39:11.989Z,6.90
2017-11-05T19:41:39.711Z,6.90
2017-11-05T19:44:07.958Z,6.80
2017-11-05T19:46:35.446Z,6.80
2017-11-05T19:49:03.723Z,6.70
2017-11-05T19:51:31.972Z,6.60
2017-11-05T19:53:59.454Z,6.60
2017-11-05T19:56:28.084Z,6.60
2017-11-05T19:58:55.567Z,6.50
2017-11-05T20:01:23.065Z,6.50
2017-11-05T20:03:50.551Z,6.50
2017-11-05T20:06:18.080Z,6.50
2017-11-05T20:08:45.582Z,6.50
2017-11-05T20:11:13.057Z,6.50
2017-11-05T20:13:40.541Z,6.50
2017-11-05T20:16:08.815Z,6.50
2017-11-05T20:18:37.062Z,6.40
2017-11-05T20:21:04.549Z,6.40
2017-11-05T20:23:33.070Z,6.40
2017-11-05T20:26:00.551Z,6.40
2017-11-05T20:28:28.049Z,6.40
2017-11-05T20:30:56.135Z,6.40
2017-11-05T20:33:24.222Z,6.40
2017-11-05T20:35:52.645Z,6.40
2017-11-05T20:38:20.705Z,6.30
2017-11-05T20:40:48.501Z,6.30
2017-11-05T20:43:16.746Z,6.40
2017-11-05T20:45:44.881Z,6.40
2017-11-05T20:48:12.975Z,6.40
2017-11-05T20:50:42.234Z,6.30
2017-11-05T20:53:09.961Z,6.30
2017-11-05T20:55:38.838Z,6.30
2017-11-05T20:58:06.689Z,6.30
2017-11-05T21:00:34.242Z,6.30
2017-11-05T21:03:04.162Z,6.30
2017-11-05T21:05:31.670Z,6.30
2017-11-05T21:08:01.129Z,6.40
2017-11-05T21:10:28.601Z,6.40
2017-11-05T21:12:57.975Z,6.40
2017-11-05T21:15:27.370Z,6.40
2017-11-05T21:17:55.139Z,6.40
2017-11-05T21:20:23.579Z,6.40
2017-11-05T21:22:51.821Z,6.50
2017-11-05T21:25:19.293Z,6.50
2017-11-05T21:27:46.785Z,6.50
2017-11-05T21:30:14.537Z,6.50
2017-11-05T21:35:24.866Z,6.40
2017-11-05T21:37:53.013Z,6.50
2017-11-05T21:40:21.393Z,6.50
2017-11-05T21:42:49.310Z,6.50
2017-11-05T21:45:16.809Z,6.50
2017-11-05T21:47:45.723Z,6.50
2017-11-05T21:50:14.237Z,6.50
2017-11-05T21:52:42.309Z,6.50
2017-11-05T21:55:10.979Z,6.50
2017-11-05T21:57:40.029Z,6.50
2017-11-05T22:02:39.713Z,6.30
2017-11-05T22:05:07.205Z,6.30
2017-11-05T22:07:35.126Z,6.40
2017-11-05T22:10:03.048Z,6.40
2017-11-05T22:12:31.504Z,6.40
2017-11-05T22:15:01.150Z,6.40
2017-11-05T22:17:29.749Z,6.40
2017-11-05T22:19:57.230Z,6.50
2017-11-05T22:22:24.706Z,6.50
2017-11-05T22:24:52.973Z,6.50
2017-11-05T22:27:21.213Z,6.50
2017-11-05T22:29:48.689Z,6.50
2017-11-05T22:32:16.185Z,6.50
2017-11-05T22:34:43.653Z,6.50
2017-11-05T22:37:11.130Z,6.50
2017-11-05T22:39:38.626Z,6.50
2017-11-05T22:42:06.098Z,6.60
2017-11-05T22:44:34.344Z,6.60
2017-11-05T22:47:01.835Z,6.60
2017-11-05T22:49:31.757Z,6.60
2017-11-05T22:54:34.032Z,6.60
2017-11-05T22:57:02.729Z,6.70
2017-11-05T22:59:31.391Z,6.70
2017-11-05T23:02:00.549Z,6.70
2017-11-05T23:04:29.505Z,6.70
2017-11-05T23:06:58.737Z,6.70
2017-11-05T23:09:27.522Z,6.80
2017-11-05T23:11:55.011Z,6.80
2017-11-05T23:14:24.435Z,6.80
2017-11-05T23:16:55.164Z,6.80
2017-11-05T23:19:24.834Z,6.80
2017-11-05T23:21:55.330Z,6.80
2017-11-05T23:24:22.830Z,6.70
2017-11-05T23:26:53.790Z,6.80
2017-11-05T23:29:25.734Z,6.90
2017-11-05T23:31:54.280Z,6.80
2017-11-05T23:34:21.753Z,6.80
2017-11-05T23:36:49.926Z,6.80
2017-11-05T23:39:18.249Z,6.80
2017-11-05T23:41:46.485Z,6.70
2017-11-05T23:44:14.593Z,6.70
2017-11-05T23:46:42.857Z,6.70
2017-11-05T23:49:10.332Z,6.70
2017-11-05T23:51:38.570Z,6.60
2017-11-05T23:54:06.061Z,6.60
2017-11-05T23:56:34.305Z,6.60
2017-11-05T23:59:01.796Z,6.60
